sensor_id;sensor_type;location;lat;lon;timestamp;pressure;altitude;pressure_sealevel;temperature;humidity
80911;BME280;70359;51.420;7.032;2023-06-04T00:00:56;1005.966;;;15.69;40.39941
80911;BME280;70359;51.420;7.032;2023-06-04T00:03:21;1005.961;;;15.66;40.59277
80911;BME280;70359;51.420;7.032;2023-06-04T00:05:46;1005.962;;;15.61;40.76172
80911;BME280;70359;51.420;7.032;2023-06-04T00:08:11;1006.002;;;15.61;40.69238
80911;BME280;70359;51.420;7.032;2023-06-04T00:10:36;1005.942;;;15.61;38.36621
80911;BME280;70359;51.420;7.032;2023-06-04T00:13:01;1005.895;;;15.62;39.04688
80911;BME280;70359;51.420;7.032;2023-06-04T00:15:26;1005.868;;;15.57;40.0791
80911;BME280;70359;51.420;7.032;2023-06-04T00:17:51;1005.843;;;15.56;40.00781
80911;BME280;70359;51.420;7.032;2023-06-04T00:20:16;1005.846;;;15.54;39.45508
80911;BME280;70359;51.420;7.032;2023-06-04T00:22:41;1005.849;;;15.54;40.06543
80911;BME280;70359;51.420;7.032;2023-06-04T00:25:06;1005.785;;;15.51;39.07129
80911;BME280;70359;51.420;7.032;2023-06-04T00:27:31;1005.818;;;15.5;40.0498
80911;BME280;70359;51.420;7.032;2023-06-04T00:29:56;1005.83;;;15.47;39.05566
80911;BME280;70359;51.420;7.032;2023-06-04T00:32:22;1005.857;;;15.46;37.97363
80911;BME280;70359;51.420;7.032;2023-06-04T00:34:48;1005.883;;;15.42;39.05176
80911;BME280;70359;51.420;7.032;2023-06-04T00:37:11;1005.851;;;15.41;37.25391
80911;BME280;70359;51.420;7.032;2023-06-04T00:39:36;1005.898;;;15.41;37.25488
80911;BME280;70359;51.420;7.032;2023-06-04T00:42:01;1005.896;;;15.43;38.08594
80911;BME280;70359;51.420;7.032;2023-06-04T00:44:26;1005.872;;;15.39;37.13867
80911;BME280;70359;51.420;7.032;2023-06-04T00:46:51;1005.866;;;15.37;37.50488
80911;BME280;70359;51.420;7.032;2023-06-04T00:49:16;1005.898;;;15.37;37.83887
80911;BME280;70359;51.420;7.032;2023-06-04T00:51:41;1005.918;;;15.25;37.58789
80911;BME280;70359;51.420;7.032;2023-06-04T00:54:07;1005.901;;;15.23;38.06836
80911;BME280;70359;51.420;7.032;2023-06-04T00:56:31;1005.914;;;15.2;38.02051
80911;BME280;70359;51.420;7.032;2023-06-04T00:58:56;1005.929;;;15.21;38.95313
80911;BME280;70359;51.420;7.032;2023-06-04T01:01:22;1005.898;;;15.22;39.35645
80911;BME280;70359;51.420;7.032;2023-06-04T01:03:47;1005.891;;;15.21;39.28711
80911;BME280;70359;51.420;7.032;2023-06-04T01:06:13;1005.898;;;15.19;39.76758
80911;BME280;70359;51.420;7.032;2023-06-04T01:08:36;1005.906;;;15.19;39.36621
80911;BME280;70359;51.420;7.032;2023-06-04T01:11:01;1005.909;;;15.15;38.9248
80911;BME280;70359;51.420;7.032;2023-06-04T01:13:26;1005.935;;;15.05;38.75488
80911;BME280;70359;51.420;7.032;2023-06-04T01:15:51;1005.89;;;15.02;38.82129
80911;BME280;70359;51.420;7.032;2023-06-04T01:18:17;1005.887;;;14.95;39.05664
80911;BME280;70359;51.420;7.032;2023-06-04T01:20:42;1005.897;;;14.96;39.34473
80911;BME280;70359;51.420;7.032;2023-06-04T01:25:31;1005.926;;;14.88;39.86719
80911;BME280;70359;51.420;7.032;2023-06-04T01:27:57;1005.944;;;14.87;39.46387
80911;BME280;70359;51.420;7.032;2023-06-04T01:30:23;1005.961;;;14.8;39.93945
80911;BME280;70359;51.420;7.032;2023-06-04T01:32:46;1005.965;;;14.79;40.05371
80911;BME280;70359;51.420;7.032;2023-06-04T01:35:11;1005.987;;;14.71;40.69043
80911;BME280;70359;51.420;7.032;2023-06-04T01:37:36;1006.004;;;14.59;40.75977
80911;BME280;70359;51.420;7.032;2023-06-04T01:40:01;1005.991;;;14.59;40.90918
80911;BME280;70359;51.420;7.032;2023-06-04T01:42:26;1005.966;;;14.38;41.60059
80911;BME280;70359;51.420;7.032;2023-06-04T01:44:51;1005.958;;;14.39;41.66992
80911;BME280;70359;51.420;7.032;2023-06-04T01:47:16;1005.907;;;14.44;41.85938
80911;BME280;70359;51.420;7.032;2023-06-04T01:49:41;1005.954;;;14.37;42.04688
80911;BME280;70359;51.420;7.032;2023-06-04T01:52:06;1005.873;;;14.38;42.24316
80911;BME280;70359;51.420;7.032;2023-06-04T01:54:31;1005.875;;;14.36;42.45996
80911;BME280;70359;51.420;7.032;2023-06-04T01:56:56;1005.884;;;14.39;42.88672
80911;BME280;70359;51.420;7.032;2023-06-04T01:59:21;1005.849;;;14.39;42.76172
80911;BME280;70359;51.420;7.032;2023-06-04T02:01:46;1005.826;;;14.44;42.9375
80911;BME280;70359;51.420;7.032;2023-06-04T02:04:11;1005.827;;;14.46;43.20313
80911;BME280;70359;51.420;7.032;2023-06-04T02:06:36;1005.823;;;14.48;43.43555
80911;BME280;70359;51.420;7.032;2023-06-04T02:09:01;1005.831;;;14.48;43.43555
80911;BME280;70359;51.420;7.032;2023-06-04T02:11:26;1005.867;;;14.5;43.63184
80911;BME280;70359;51.420;7.032;2023-06-04T02:13:51;1005.846;;;14.48;43.58398
80911;BME280;70359;51.420;7.032;2023-06-04T02:16:16;1005.905;;;14.47;43.44531
80911;BME280;70359;51.420;7.032;2023-06-04T02:18:41;1005.937;;;14.47;43.39941
80911;BME280;70359;51.420;7.032;2023-06-04T02:21:06;1005.918;;;14.46;43.74219
80911;BME280;70359;51.420;7.032;2023-06-04T02:23:31;1006.056;;;14.43;44.50879
80911;BME280;70359;51.420;7.032;2023-06-04T02:25:56;1006.009;;;14.42;44.27734
80911;BME280;70359;51.420;7.032;2023-06-04T02:28:21;1005.942;;;14.42;43.93359
80911;BME280;70359;51.420;7.032;2023-06-04T02:30:46;1005.972;;;14.41;44.15137
80911;BME280;70359;51.420;7.032;2023-06-04T02:33:11;1005.904;;;14.42;44.39258
80911;BME280;70359;51.420;7.032;2023-06-04T02:35:36;1005.981;;;14.35;44.44238
80911;BME280;70359;51.420;7.032;2023-06-04T02:38:01;1005.948;;;14.35;44.33887
80911;BME280;70359;51.420;7.032;2023-06-04T02:40:26;1005.973;;;14.33;44.33789
80911;BME280;70359;51.420;7.032;2023-06-04T02:42:51;1005.972;;;14.3;44.75977
80911;BME280;70359;51.420;7.032;2023-06-04T02:45:16;1005.977;;;14.21;44.96777
80911;BME280;70359;51.420;7.032;2023-06-04T02:47:41;1005.967;;;14.22;44.85352
80911;BME280;70359;51.420;7.032;2023-06-04T02:50:07;1005.993;;;14.18;44.70117
80911;BME280;70359;51.420;7.032;2023-06-04T02:52:31;1005.966;;;14.14;44.90332
80911;BME280;70359;51.420;7.032;2023-06-04T02:54:56;1005.948;;;14.12;44.91309
80911;BME280;70359;51.420;7.032;2023-06-04T02:57:21;1005.959;;;14.09;45.12598
80911;BME280;70359;51.420;7.032;2023-06-04T02:59:46;1005.958;;;14.04;45.46484
80911;BME280;70359;51.420;7.032;2023-06-04T03:02:11;1005.986;;;14.05;45.22559
80911;BME280;70359;51.420;7.032;2023-06-04T03:04:36;1005.989;;;14;45.8291
80911;BME280;70359;51.420;7.032;2023-06-04T03:07:01;1006.008;;;13.97;45.44727
80911;BME280;70359;51.420;7.032;2023-06-04T03:09:26;1005.999;;;13.98;45.27637
80911;BME280;70359;51.420;7.032;2023-06-04T03:11:51;1006.026;;;13.96;45.53711
80911;BME280;70359;51.420;7.032;2023-06-04T03:14:16;1006.036;;;13.96;45.6748
80911;BME280;70359;51.420;7.032;2023-06-04T03:16:41;1006.044;;;13.95;45.69727
80911;BME280;70359;51.420;7.032;2023-06-04T03:19:06;1006.038;;;13.94;45.71875
80911;BME280;70359;51.420;7.032;2023-06-04T03:21:31;1006.074;;;13.92;45.56836
80911;BME280;70359;51.420;7.032;2023-06-04T03:23:56;1006.058;;;13.9;45.84082
80911;BME280;70359;51.420;7.032;2023-06-04T03:26:21;1006.052;;;13.85;45.83496
80911;BME280;70359;51.420;7.032;2023-06-04T03:28:46;1006.039;;;13.85;46.05371
80911;BME280;70359;51.420;7.032;2023-06-04T03:31:11;1006.067;;;13.84;46.00684
80911;BME280;70359;51.420;7.032;2023-06-04T03:33:36;1006.06;;;13.86;46.31738
80911;BME280;70359;51.420;7.032;2023-06-04T03:36:01;1006.057;;;13.85;46.23633
80911;BME280;70359;51.420;7.032;2023-06-04T03:38:26;1006.059;;;13.84;45.97266
80911;BME280;70359;51.420;7.032;2023-06-04T03:40:52;1006.045;;;13.85;46.23535
80911;BME280;70359;51.420;7.032;2023-06-04T03:43:16;1006.064;;;13.83;46.48535
80911;BME280;70359;51.420;7.032;2023-06-04T03:45:41;1006.05;;;13.8;47.04395
80911;BME280;70359;51.420;7.032;2023-06-04T03:48:06;1006.084;;;13.81;46.65527
80911;BME280;70359;51.420;7.032;2023-06-04T03:50:31;1006.095;;;13.83;46.62305
80911;BME280;70359;51.420;7.032;2023-06-04T03:52:57;1006.137;;;13.81;47.02148
80911;BME280;70359;51.420;7.032;2023-06-04T03:55:21;1006.132;;;13.79;46.99707
80911;BME280;70359;51.420;7.032;2023-06-04T03:57:46;1006.129;;;13.81;46.82813
80911;BME280;70359;51.420;7.032;2023-06-04T04:00:12;1006.135;;;13.78;47.5332
80911;BME280;70359;51.420;7.032;2023-06-04T04:02:36;1006.106;;;13.8;47.61523
80911;BME280;70359;51.420;7.032;2023-06-04T04:05:01;1006.097;;;13.81;47.76563
80911;BME280;70359;51.420;7.032;2023-06-04T04:07:26;1006.066;;;13.83;47.5957
80911;BME280;70359;51.420;7.032;2023-06-04T04:09:51;1006.052;;;13.84;47.01367
80911;BME280;70359;51.420;7.032;2023-06-04T04:12:16;1006.085;;;13.78;47.37207
80911;BME280;70359;51.420;7.032;2023-06-04T04:14:41;1006.069;;;13.72;47.25195
80911;BME280;70359;51.420;7.032;2023-06-04T04:17:06;1006.067;;;13.71;47.8125
80911;BME280;70359;51.420;7.032;2023-06-04T04:19:31;1006.105;;;13.66;47.80664
80911;BME280;70359;51.420;7.032;2023-06-04T04:21:56;1006.094;;;13.58;47.74023
80911;BME280;70359;51.420;7.032;2023-06-04T04:24:27;1006.087;;;13.44;48.28516
80911;BME280;70359;51.420;7.032;2023-06-04T04:26:46;1006.097;;;13.44;48.18262
80911;BME280;70359;51.420;7.032;2023-06-04T04:29:11;1006.076;;;13.45;48.43457
80911;BME280;70359;51.420;7.032;2023-06-04T04:31:36;1006.088;;;13.54;48.49023
80911;BME280;70359;51.420;7.032;2023-06-04T04:34:01;1006.083;;;13.44;48.65137
80911;BME280;70359;51.420;7.032;2023-06-04T04:36:26;1006.054;;;13.5;48.66895
80911;BME280;70359;51.420;7.032;2023-06-04T04:38:51;1006.071;;;13.53;49.11816
80911;BME280;70359;51.420;7.032;2023-06-04T04:41:16;1006.078;;;13.49;48.67871
80911;BME280;70359;51.420;7.032;2023-06-04T04:43:41;1006.072;;;13.53;49.11816
80911;BME280;70359;51.420;7.032;2023-06-04T04:46:06;1006.093;;;13.48;48.91895
80911;BME280;70359;51.420;7.032;2023-06-04T04:48:31;1006.087;;;13.41;48.52246
80911;BME280;70359;51.420;7.032;2023-06-04T04:50:56;1006.038;;;13.44;48.60547
80911;BME280;70359;51.420;7.032;2023-06-04T04:53:21;1006.038;;;13.54;48.69629
80911;BME280;70359;51.420;7.032;2023-06-04T04:55:46;1006.087;;;13.66;47.6582
80911;BME280;70359;51.420;7.032;2023-06-04T04:58:11;1006.106;;;13.74;47.83887
80911;BME280;70359;51.420;7.032;2023-06-04T05:00:37;1006.064;;;13.85;47.36914
80911;BME280;70359;51.420;7.032;2023-06-04T05:03:01;1006.076;;;13.86;47.3584
80911;BME280;70359;51.420;7.032;2023-06-04T05:05:26;1006.137;;;13.9;46.52734
80911;BME280;70359;51.420;7.032;2023-06-04T05:07:52;1006.099;;;13.87;46.67285
80911;BME280;70359;51.420;7.032;2023-06-04T05:10:16;1006.114;;;13.98;46.93652
80911;BME280;70359;51.420;7.032;2023-06-04T05:12:41;1006.165;;;13.92;46.83984
80911;BME280;70359;51.420;7.032;2023-06-04T05:15:07;1006.179;;;13.88;46.6748
80911;BME280;70359;51.420;7.032;2023-06-04T05:17:32;1006.177;;;13.9;46.6416
80911;BME280;70359;51.420;7.032;2023-06-04T05:19:57;1006.174;;;14.08;46.33984
80911;BME280;70359;51.420;7.032;2023-06-04T05:22:22;1006.153;;;14.12;45.97754
80911;BME280;70359;51.420;7.032;2023-06-04T05:24:47;1006.147;;;14.13;46.09277
80911;BME280;70359;51.420;7.032;2023-06-04T05:27:12;1006.177;;;14.17;45.95996
80911;BME280;70359;51.420;7.032;2023-06-04T05:29:37;1006.144;;;14.2;46.21484
80911;BME280;70359;51.420;7.032;2023-06-04T05:32:02;1006.166;;;14.26;46.62305
80911;BME280;70359;51.420;7.032;2023-06-04T05:34:27;1006.154;;;14.31;45.92969
80911;BME280;70359;51.420;7.032;2023-06-04T05:36:52;1006.148;;;14.37;45.95801
80911;BME280;70359;51.420;7.032;2023-06-04T05:39:17;1006.129;;;14.37;45.5
80911;BME280;70359;51.420;7.032;2023-06-04T05:41:42;1006.173;;;14.47;46.1748
80911;BME280;70359;51.420;7.032;2023-06-04T05:44:07;1006.174;;;14.38;46.0625
80911;BME280;70359;51.420;7.032;2023-06-04T05:46:32;1006.132;;;14.58;45.8877
80911;BME280;70359;51.420;7.032;2023-06-04T05:48:57;1006.159;;;14.56;45.7373
80911;BME280;70359;51.420;7.032;2023-06-04T05:51:22;1006.186;;;14.74;45.7793
80911;BME280;70359;51.420;7.032;2023-06-04T05:53:47;1006.206;;;14.78;44.85352
80911;BME280;70359;51.420;7.032;2023-06-04T05:56:12;1006.263;;;14.94;45.47852
80911;BME280;70359;51.420;7.032;2023-06-04T05:58:37;1006.287;;;15.03;45.24707
80911;BME280;70359;51.420;7.032;2023-06-04T06:01:02;1006.251;;;15.07;44.52637
80911;BME280;70359;51.420;7.032;2023-06-04T06:03:27;1006.313;;;15.28;44.66406
80911;BME280;70359;51.420;7.032;2023-06-04T06:05:52;1006.281;;;15.42;44.10156
80911;BME280;70359;51.420;7.032;2023-06-04T06:08:17;1006.306;;;15.38;43.53516
80911;BME280;70359;51.420;7.032;2023-06-04T06:10:42;1006.387;;;15.5;43.33984
80911;BME280;70359;51.420;7.032;2023-06-04T06:13:07;1006.367;;;15.49;42.78711
80911;BME280;70359;51.420;7.032;2023-06-04T06:15:32;1006.331;;;15.55;43.18457
80911;BME280;70359;51.420;7.032;2023-06-04T06:17:57;1006.33;;;15.61;43.25879
80911;BME280;70359;51.420;7.032;2023-06-04T06:20:22;1006.359;;;15.61;42.14258
80911;BME280;70359;51.420;7.032;2023-06-04T06:22:47;1006.398;;;15.66;42.6416
80911;BME280;70359;51.420;7.032;2023-06-04T06:25:12;1006.436;;;15.74;42.23535
80911;BME280;70359;51.420;7.032;2023-06-04T06:27:37;1006.483;;;15.74;41.66016
80911;BME280;70359;51.420;7.032;2023-06-04T06:30:02;1006.446;;;15.88;41.1084
80911;BME280;70359;51.420;7.032;2023-06-04T06:32:27;1006.478;;;15.98;41.60156
80911;BME280;70359;51.420;7.032;2023-06-04T06:34:52;1006.478;;;16;41.03906
80911;BME280;70359;51.420;7.032;2023-06-04T06:37:17;1006.481;;;16.14;40.72949
80911;BME280;70359;51.420;7.032;2023-06-04T06:39:42;1006.498;;;16.28;39.73926
80911;BME280;70359;51.420;7.032;2023-06-04T06:42:07;1006.473;;;16.47;39.89453
80911;BME280;70359;51.420;7.032;2023-06-04T06:44:32;1006.484;;;16.53;38.67676
80911;BME280;70359;51.420;7.032;2023-06-04T06:46:57;1006.507;;;16.71;39.35059
80911;BME280;70359;51.420;7.032;2023-06-04T06:49:22;1006.566;;;16.84;38.68066
80911;BME280;70359;51.420;7.032;2023-06-04T06:51:47;1006.571;;;16.69;39.08301
80911;BME280;70359;51.420;7.032;2023-06-04T06:54:12;1006.535;;;16.73;38.95996
80911;BME280;70359;51.420;7.032;2023-06-04T06:56:37;1006.54;;;16.89;39.25098
80911;BME280;70359;51.420;7.032;2023-06-04T06:59:02;1006.514;;;17.11;39.12109
80911;BME280;70359;51.420;7.032;2023-06-04T07:01:27;1006.553;;;17.22;38.37793
80911;BME280;70359;51.420;7.032;2023-06-04T07:03:52;1006.559;;;17.38;38.17285
80911;BME280;70359;51.420;7.032;2023-06-04T07:06:17;1006.59;;;17.55;37.86328
80911;BME280;70359;51.420;7.032;2023-06-04T07:08:42;1006.553;;;17.63;37.25684
80911;BME280;70359;51.420;7.032;2023-06-04T07:11:07;1006.555;;;17.74;37.42773
80911;BME280;70359;51.420;7.032;2023-06-04T07:13:32;1006.598;;;17.91;39.27246
80911;BME280;70359;51.420;7.032;2023-06-04T07:15:57;1006.559;;;18.02;37.64844
80911;BME280;70359;51.420;7.032;2023-06-04T07:18:22;1006.568;;;18.11;36.23047
80911;BME280;70359;51.420;7.032;2023-06-04T07:20:47;1006.55;;;18.29;36.02539
80911;BME280;70359;51.420;7.032;2023-06-04T07:23:12;1006.589;;;18.37;37.44531
80911;BME280;70359;51.420;7.032;2023-06-04T07:25:37;1006.592;;;18.61;36.0625
80911;BME280;70359;51.420;7.032;2023-06-04T07:28:02;1006.613;;;18.78;35.83203
80911;BME280;70359;51.420;7.032;2023-06-04T07:30:27;1006.616;;;18.97;34.46484
80911;BME280;70359;51.420;7.032;2023-06-04T07:32:52;1006.621;;;19.03;35.43457
80911;BME280;70359;51.420;7.032;2023-06-04T07:35:17;1006.627;;;19.22;34.03027
80911;BME280;70359;51.420;7.032;2023-06-04T07:37:42;1006.588;;;19.25;34.98535
80911;BME280;70359;51.420;7.032;2023-06-04T07:40:07;1006.571;;;19.34;33.13281
80911;BME280;70359;51.420;7.032;2023-06-04T07:42:32;1006.577;;;19.31;33.12988
80911;BME280;70359;51.420;7.032;2023-06-04T07:44:57;1006.595;;;19.5;34.01758
80911;BME280;70359;51.420;7.032;2023-06-04T07:47:22;1006.651;;;19.59;33.48828
80911;BME280;70359;51.420;7.032;2023-06-04T07:49:47;1006.659;;;19.68;33.72754
80911;BME280;70359;51.420;7.032;2023-06-04T07:52:12;1006.63;;;19.85;33.625
80911;BME280;70359;51.420;7.032;2023-06-04T07:54:37;1006.623;;;19.84;32.69238
80911;BME280;70359;51.420;7.032;2023-06-04T07:57:02;1006.67;;;19.96;33.40039
80911;BME280;70359;51.420;7.032;2023-06-04T07:59:27;1006.607;;;19.96;33.63281
80911;BME280;70359;51.420;7.032;2023-06-04T08:01:53;1006.57;;;19.94;32.60547
80911;BME280;70359;51.420;7.032;2023-06-04T08:04:17;1006.612;;;20.16;33.20508
80911;BME280;70359;51.420;7.032;2023-06-04T08:06:42;1006.572;;;20.17;31.65527
80911;BME280;70359;51.420;7.032;2023-06-04T08:09:07;1006.623;;;20.17;31.0957
80911;BME280;70359;51.420;7.032;2023-06-04T08:11:32;1006.592;;;20.43;31.52148
80911;BME280;70359;51.420;7.032;2023-06-04T08:13:57;1006.592;;;20.33;32.25
80911;BME280;70359;51.420;7.032;2023-06-04T08:16:22;1006.578;;;20.61;31.47559
80911;BME280;70359;51.420;7.032;2023-06-04T08:18:47;1006.629;;;20.64;31.11621
80911;BME280;70359;51.420;7.032;2023-06-04T08:21:12;1006.595;;;20.67;31.17773
80911;BME280;70359;51.420;7.032;2023-06-04T08:23:37;1006.595;;;20.77;32.53809
80911;BME280;70359;51.420;7.032;2023-06-04T08:26:02;1006.579;;;20.8;32.6582
80911;BME280;70359;51.420;7.032;2023-06-04T08:28:27;1006.59;;;20.83;31.25781
80911;BME280;70359;51.420;7.032;2023-06-04T08:30:52;1006.617;;;20.89;30.63086
80911;BME280;70359;51.420;7.032;2023-06-04T08:33:17;1006.678;;;20.82;30.88379
80911;BME280;70359;51.420;7.032;2023-06-04T08:35:42;1006.693;;;21.02;32.5918
80911;BME280;70359;51.420;7.032;2023-06-04T08:38:07;1006.703;;;21.06;31.15723
80911;BME280;70359;51.420;7.032;2023-06-04T08:40:32;1006.663;;;21.17;30.84863
80911;BME280;70359;51.420;7.032;2023-06-04T08:43:01;1006.639;;;21.23;30.99414
80911;BME280;70359;51.420;7.032;2023-06-04T08:45:22;1006.643;;;21.25;31.05371
80911;BME280;70359;51.420;7.032;2023-06-04T08:47:48;1006.68;;;21.15;31.26855
80911;BME280;70359;51.420;7.032;2023-06-04T08:50:12;1006.651;;;21.07;31.0293
80911;BME280;70359;51.420;7.032;2023-06-04T08:52:38;1006.668;;;21.06;31.33203
80911;BME280;70359;51.420;7.032;2023-06-04T08:55:02;1006.645;;;20.95;31.21973
80911;BME280;70359;51.420;7.032;2023-06-04T08:57:27;1006.623;;;21.11;30.97363
80911;BME280;70359;51.420;7.032;2023-06-04T08:59:52;1006.634;;;21.23;30.60742
80911;BME280;70359;51.420;7.032;2023-06-04T09:02:20;1006.688;;;21.23;30.66602
80911;BME280;70359;51.420;7.032;2023-06-04T09:04:42;1006.646;;;21.26;30.64551
80911;BME280;70359;51.420;7.032;2023-06-04T09:07:08;1006.679;;;21.27;31.70996
80911;BME280;70359;51.420;7.032;2023-06-04T09:09:32;1006.697;;;21.27;31.04395
80911;BME280;70359;51.420;7.032;2023-06-04T09:11:57;1006.731;;;21.3;30.16797
80911;BME280;70359;51.420;7.032;2023-06-04T09:14:22;1006.728;;;21.28;28.9502
80911;BME280;70359;51.420;7.032;2023-06-04T09:16:48;1006.641;;;21.18;29.36523
80911;BME280;70359;51.420;7.032;2023-06-04T09:19:12;1006.719;;;21.16;31.21094
80911;BME280;70359;51.420;7.032;2023-06-04T09:21:41;1006.621;;;21.09;29.51074
80911;BME280;70359;51.420;7.032;2023-06-04T09:24:02;1006.606;;;21.18;30.42871
80911;BME280;70359;51.420;7.032;2023-06-04T09:26:27;1006.613;;;21.2;29.74023
80911;BME280;70359;51.420;7.032;2023-06-04T09:31:17;1006.646;;;20.98;30.01855
80911;BME280;70359;51.420;7.032;2023-06-04T09:33:48;1006.706;;;21.02;30.81543
80911;BME280;70359;51.420;7.032;2023-06-04T09:36:07;1006.669;;;21.07;30.4209
80911;BME280;70359;51.420;7.032;2023-06-04T09:38:38;1006.732;;;21.23;31.02832
80911;BME280;70359;51.420;7.032;2023-06-04T09:40:57;1006.67;;;21.2;30.21973
80911;BME280;70359;51.420;7.032;2023-06-04T09:43:28;1006.745;;;21.06;29.55566
80911;BME280;70359;51.420;7.032;2023-06-04T09:45:47;1006.691;;;21.16;27.19922
80911;BME280;70359;51.420;7.032;2023-06-04T09:48:18;1006.74;;;21.23;28.91211
80911;BME280;70359;51.420;7.032;2023-06-04T09:50:37;1006.758;;;21.13;26.75293
80911;BME280;70359;51.420;7.032;2023-06-04T09:53:26;1006.695;;;21.07;26.66699
80911;BME280;70359;51.420;7.032;2023-06-04T09:55:27;1006.682;;;21.17;26.20508
80911;BME280;70359;51.420;7.032;2023-06-04T09:57:52;1006.677;;;21;25.77344
80911;BME280;70359;51.420;7.032;2023-06-04T10:00:18;1006.708;;;21;26.39355
80911;BME280;70359;51.420;7.032;2023-06-04T10:02:45;1006.745;;;21.04;27.60156
80911;BME280;70359;51.420;7.032;2023-06-04T10:05:08;1006.735;;;21;27.13086
80911;BME280;70359;51.420;7.032;2023-06-04T10:07:33;1006.764;;;21.08;26.76172
80911;BME280;70359;51.420;7.032;2023-06-04T10:09:57;1006.693;;;21.09;27.1123
80911;BME280;70359;51.420;7.032;2023-06-04T10:12:23;1006.666;;;21.07;26.70215
80911;BME280;70359;51.420;7.032;2023-06-04T10:14:50;1006.649;;;21.07;26.08203
80911;BME280;70359;51.420;7.032;2023-06-04T10:17:12;1006.657;;;21.04;25.78711
80911;BME280;70359;51.420;7.032;2023-06-04T10:19:37;1006.694;;;21;27.23633
80911;BME280;70359;51.420;7.032;2023-06-04T10:22:02;1006.651;;;21;27.35352
80911;BME280;70359;51.420;7.032;2023-06-04T10:24:27;1006.631;;;21.06;27.34473
80911;BME280;70359;51.420;7.032;2023-06-04T10:26:52;1006.643;;;21.14;26.50781
80911;BME280;70359;51.420;7.032;2023-06-04T10:29:17;1006.593;;;21.27;27.00684
80911;BME280;70359;51.420;7.032;2023-06-04T10:31:42;1006.631;;;21.19;27.92676
80911;BME280;70359;51.420;7.032;2023-06-04T10:34:07;1006.594;;;20.99;27.15332
80911;BME280;70359;51.420;7.032;2023-06-04T10:36:41;1006.571;;;21.15;27.32715
80911;BME280;70359;51.420;7.032;2023-06-04T10:39:00;1006.532;;;21.08;28.04883
80911;BME280;70359;51.420;7.032;2023-06-04T10:41:22;1006.66;;;21.03;27.25
80911;BME280;70359;51.420;7.032;2023-06-04T10:43:48;1006.633;;;21.09;27.7793
80911;BME280;70359;51.420;7.032;2023-06-04T10:46:16;1006.623;;;21.33;28.36914
80911;BME280;70359;51.420;7.032;2023-06-04T10:48:55;1006.609;;;21.18;28.07813
80911;BME280;70359;51.420;7.032;2023-06-04T10:51:02;1006.553;;;21.04;26.31445
80911;BME280;70359;51.420;7.032;2023-06-04T10:53:35;1006.518;;;21.15;27.08105
80911;BME280;70359;51.420;7.032;2023-06-04T10:55:52;1006.482;;;21.34;27.25684
80911;BME280;70359;51.420;7.032;2023-06-04T10:58:17;1006.575;;;21.19;26.9668
80911;BME280;70359;51.420;7.032;2023-06-04T11:00:43;1006.578;;;21.16;27.29297
80911;BME280;70359;51.420;7.032;2023-06-04T11:03:09;1006.517;;;21.22;27.45996
80911;BME280;70359;51.420;7.032;2023-06-04T11:05:39;1006.459;;;21.25;27.46094
80911;BME280;70359;51.420;7.032;2023-06-04T11:07:58;1006.455;;;21.41;28.68945
80911;BME280;70359;51.420;7.032;2023-06-04T11:10:29;1006.4;;;21.38;27.69238
80911;BME280;70359;51.420;7.032;2023-06-04T11:12:48;1006.407;;;21.34;28.07617
80911;BME280;70359;51.420;7.032;2023-06-04T11:15:13;1006.313;;;21.45;28.62109
80911;BME280;70359;51.420;7.032;2023-06-04T11:17:37;1006.337;;;21.65;27.47559
80911;BME280;70359;51.420;7.032;2023-06-04T11:20:03;1006.357;;;21.56;27.3877
80911;BME280;70359;51.420;7.032;2023-06-04T11:22:27;1006.311;;;21.67;27.39453
80911;BME280;70359;51.420;7.032;2023-06-04T11:24:53;1006.318;;;21.67;26.15234
80911;BME280;70359;51.420;7.032;2023-06-04T11:27:17;1006.353;;;21.62;24.29688
80911;BME280;70359;51.420;7.032;2023-06-04T11:29:42;1006.284;;;21.47;24.98047
80911;BME280;70359;51.420;7.032;2023-06-04T11:32:08;1006.26;;;21.56;26.34473
80911;BME280;70359;51.420;7.032;2023-06-04T11:34:32;1006.242;;;21.51;28.16895
80911;BME280;70359;51.420;7.032;2023-06-04T11:37:06;1006.21;;;21.39;28.14941
80911;BME280;70359;51.420;7.032;2023-06-04T11:39:23;1006.25;;;21.54;28.41602
80911;BME280;70359;51.420;7.032;2023-06-04T11:41:47;1006.24;;;21.63;27.08691
80911;BME280;70359;51.420;7.032;2023-06-04T11:44:13;1006.324;;;21.54;27.44531
80911;BME280;70359;51.420;7.032;2023-06-04T11:46:39;1006.247;;;21.31;26.42383
80911;BME280;70359;51.420;7.032;2023-06-04T11:49:03;1006.291;;;21.38;26.00586
80911;BME280;70359;51.420;7.032;2023-06-04T11:51:28;1006.335;;;21.58;26.50977
80911;BME280;70359;51.420;7.032;2023-06-04T11:53:52;1006.162;;;21.54;25.58203
80911;BME280;70359;51.420;7.032;2023-06-04T11:56:18;1006.233;;;21.59;25.9248
80911;BME280;70359;51.420;7.032;2023-06-04T11:58:43;1006.187;;;21.53;25.62793
80911;BME280;70359;51.420;7.032;2023-06-04T12:01:08;1006.164;;;21.48;25.22656
80911;BME280;70359;51.420;7.032;2023-06-04T12:03:39;1006.128;;;21.48;25.77832
80911;BME280;70359;51.420;7.032;2023-06-04T12:05:57;1006.162;;;21.54;26.95313
80911;BME280;70359;51.420;7.032;2023-06-04T12:08:23;1006.083;;;21.58;26.5918
80911;BME280;70359;51.420;7.032;2023-06-04T12:10:49;1006.103;;;21.68;26.65625
80911;BME280;70359;51.420;7.032;2023-06-04T12:13:12;1006.077;;;21.72;26.37793
80911;BME280;70359;51.420;7.032;2023-06-04T12:15:38;1006.034;;;21.66;27.10059
80911;BME280;70359;51.420;7.032;2023-06-04T12:18:14;1006.025;;;21.69;27.06738
80911;BME280;70359;51.420;7.032;2023-06-04T12:20:37;1006.103;;;21.58;27.45801
80911;BME280;70359;51.420;7.032;2023-06-04T12:22:53;1006.055;;;21.55;26.76563
80911;BME280;70359;51.420;7.032;2023-06-04T12:25:27;1006.12;;;21.55;27.51563